createdAt,value
2022-10-20T00:00:03.469Z,1010.36
2022-10-20T00:01:03.499Z,1010.35
2022-10-20T00:02:02.787Z,1010.34
2022-10-20T00:03:02.755Z,1010.34
2022-10-20T00:04:03.039Z,1010.30
2022-10-20T00:05:02.769Z,1010.34
2022-10-20T00:06:02.754Z,1010.31
2022-10-20T00:07:03.031Z,1010.30
2022-10-20T00:08:03.090Z,1010.32
2022-10-20T00:09:02.670Z,1010.28
2022-10-20T00:10:03.030Z,1010.25
2022-10-20T00:11:03.060Z,1010.23
2022-10-20T00:12:03.462Z,1010.16
2022-10-20T00:13:03.155Z,1010.15
2022-10-20T00:14:02.963Z,1010.07
2022-10-20T00:15:03.445Z,1010.04
2022-10-20T00:16:03.315Z,1010.03
2022-10-20T00:17:03.479Z,1009.95
2022-10-20T00:18:03.440Z,1009.89
2022-10-20T00:19:03.836Z,1009.85
2022-10-20T00:20:03.575Z,1009.86
2022-10-20T00:21:03.506Z,1009.85
2022-10-20T00:22:02.374Z,1009.80
2022-10-20T00:23:02.865Z,1009.83
2022-10-20T00:24:02.743Z,1009.83
2022-10-20T00:25:02.522Z,1009.80
2022-10-20T00:26:03.003Z,1009.78
2022-10-20T00:27:02.667Z,1009.80
2022-10-20T00:28:02.849Z,1009.79
2022-10-20T00:29:02.914Z,1009.76
2022-10-20T00:30:02.751Z,1009.72
2022-10-20T00:31:02.969Z,1009.72
2022-10-20T00:32:02.913Z,1009.75
2022-10-20T00:33:02.897Z,1009.77
2022-10-20T00:34:03.349Z,1009.70
2022-10-20T00:35:03.211Z,1009.71
2022-10-20T00:36:03.369Z,1009.64
2022-10-20T00:37:03.153Z,1009.65
2022-10-20T00:38:03.227Z,1009.65
2022-10-20T00:39:03.605Z,1009.63
2022-10-20T00:40:03.121Z,1009.69
2022-10-20T00:41:03.319Z,1009.67
2022-10-20T00:42:03.133Z,1009.64
2022-10-20T00:43:03.752Z,1009.61
2022-10-20T00:44:03.378Z,1009.58
2022-10-20T00:45:03.561Z,1009.60
2022-10-20T00:46:03.736Z,1009.62
2022-10-20T00:47:02.393Z,1009.66
2022-10-20T00:48:02.484Z,1009.71
2022-10-20T00:49:02.831Z,1009.69
2022-10-20T00:50:02.845Z,1009.67
2022-10-20T00:51:02.698Z,1009.64
2022-10-20T00:52:02.561Z,1009.64
2022-10-20T00:53:02.533Z,1009.60
2022-10-20T00:54:02.812Z,1009.61
2022-10-20T00:55:02.660Z,1009.57
2022-10-20T00:56:02.472Z,1009.55
2022-10-20T00:58:03.443Z,1009.49
2022-10-20T00:59:03.194Z,1009.50
2022-10-20T01:00:03.549Z,1009.52
2022-10-20T01:01:03.126Z,1009.52
2022-10-20T01:02:03.004Z,1009.51
2022-10-20T01:03:02.913Z,1009.51
2022-10-20T01:04:02.733Z,1009.51
2022-10-20T01:05:03.161Z,1009.49
2022-10-20T01:06:02.951Z,1009.46
2022-10-20T01:07:03.432Z,1009.47
2022-10-20T01:08:03.883Z,1009.43
2022-10-20T01:09:03.472Z,1009.39
2022-10-20T01:10:03.624Z,1009.37
2022-10-20T01:11:03.429Z,1009.33
2022-10-20T01:12:02.999Z,1009.31
2022-10-20T01:13:03.164Z,1009.29
2022-10-20T01:14:02.956Z,1009.30
2022-10-20T01:15:02.998Z,1009.26
2022-10-20T01:16:02.884Z,1009.21
2022-10-20T01:17:03.380Z,1009.22
2022-10-20T01:18:03.626Z,1009.24
2022-10-20T01:19:03.484Z,1009.24
2022-10-20T01:20:03.260Z,1009.22
2022-10-20T01:21:03.654Z,1009.26
2022-10-20T01:22:02.788Z,1009.23
2022-10-20T01:23:02.583Z,1009.21
2022-10-20T01:24:03.063Z,1009.18
2022-10-20T01:25:02.927Z,1009.20
2022-10-20T01:26:02.719Z,1009.17
2022-10-20T01:27:03.482Z,1009.13
2022-10-20T01:28:03.277Z,1009.12
2022-10-20T01:29:03.053Z,1009.09
2022-10-20T01:30:03.598Z,1009.03
2022-10-20T01:31:03.077Z,1009.03
2022-10-20T01:32:03.268Z,1009.07
2022-10-20T01:33:03.634Z,1009.11
2022-10-20T01:34:03.728Z,1009.06
2022-10-20T01:35:03.464Z,1009.06
2022-10-20T01:36:03.258Z,1009.09
2022-10-20T01:37:02.833Z,1009.05
2022-10-20T01:38:02.609Z,1009.12
2022-10-20T01:39:03.101Z,1009.07
2022-10-20T01:40:02.893Z,1009.10
2022-10-20T01:41:02.766Z,1009.03
2022-10-20T01:42:03.502Z,1008.99
2022-10-20T01:43:03.369Z,1008.96
2022-10-20T01:44:03.306Z,1008.99
2022-10-20T01:45:03.174Z,1009.00
2022-10-20T01:46:03.041Z,1008.96
2022-10-20T01:47:03.585Z,1008.96
2022-10-20T01:48:03.452Z,1008.99
2022-10-20T01:49:03.363Z,1008.98
2022-10-20T01:50:03.527Z,1008.97
2022-10-20T01:51:03.583Z,1009.00
2022-10-20T01:52:03.546Z,1008.97
2022-10-20T01:53:03.260Z,1008.94
2022-10-20T01:54:03.418Z,1008.93
2022-10-20T01:55:03.099Z,1008.93
2022-10-20T01:56:03.137Z,1008.95
2022-10-20T01:57:03.624Z,1008.82
2022-10-20T01:58:03.870Z,1008.80
2022-10-20T01:59:03.615Z,1008.74
2022-10-20T02:00:03.312Z,1008.68
2022-10-20T02:01:03.821Z,1008.66
2022-10-20T02:02:03.424Z,1008.67
2022-10-20T02:03:03.192Z,1008.66
2022-10-20T02:04:03.539Z,1008.64
2022-10-20T02:05:03.507Z,1008.67
2022-10-20T02:06:03.579Z,1008.67
2022-10-20T02:07:02.517Z,1008.67
2022-10-20T02:08:02.566Z,1008.66
2022-10-20T02:09:02.472Z,1008.68
2022-10-20T02:10:02.935Z,1008.61
2022-10-20T02:11:02.862Z,1008.61
2022-10-20T02:12:03.402Z,1008.57
2022-10-20T02:13:03.245Z,1008.56
2022-10-20T02:14:03.504Z,1008.53
2022-10-20T02:15:03.247Z,1008.55
2022-10-20T02:16:03.096Z,1008.59
2022-10-20T02:17:02.893Z,1008.54
2022-10-20T02:18:02.983Z,1008.52
2022-10-20T02:19:02.398Z,1008.47
2022-10-20T02:20:02.330Z,1008.45
2022-10-20T02:21:02.873Z,1008.42
2022-10-20T02:22:02.882Z,1008.36
2022-10-20T02:23:03.364Z,1008.36
2022-10-20T02:24:03.195Z,1008.34
2022-10-20T02:25:03.373Z,1008.33
2022-10-20T02:26:03.325Z,1008.38
2022-10-20T02:27:02.451Z,1008.36
2022-10-20T02:28:02.517Z,1008.33
2022-10-20T02:29:02.956Z,1008.35
2022-10-20T02:30:02.513Z,1008.29
2022-10-20T02:31:02.946Z,1008.26
2022-10-20T02:32:03.022Z,1008.26
2022-10-20T02:33:02.831Z,1008.19
2022-10-20T02:34:02.717Z,1008.18
2022-10-20T02:35:05.163Z,1008.20
2022-10-20T02:36:02.981Z,1008.13
2022-10-20T02:37:03.499Z,1008.25
2022-10-20T02:38:03.472Z,1008.23
2022-10-20T02:39:02.883Z,1008.19
2022-10-20T02:40:03.450Z,1008.22
2022-10-20T02:41:03.396Z,1008.23
2022-10-20T02:42:02.982Z,1008.22
2022-10-20T02:43:02.774Z,1008.24
2022-10-20T02:44:02.314Z,1008.25
2022-10-20T02:45:02.785Z,1008.26
2022-10-20T02:46:02.645Z,1008.23
2022-10-20T02:47:02.791Z,1008.26
2022-10-20T02:48:05.165Z,1008.30
2022-10-20T02:49:02.958Z,1008.26
2022-10-20T02:50:02.812Z,1008.24
2022-10-20T02:51:02.603Z,1008.24
2022-10-20T02:52:02.207Z,1008.27
2022-10-20T02:53:02.693Z,1008.21
2022-10-20T02:54:02.452Z,1008.21
2022-10-20T02:55:02.363Z,1008.27
2022-10-20T02:56:02.178Z,1008.24
2022-10-20T02:57:03.058Z,1008.25
2022-10-20T02:58:02.806Z,1008.25
2022-10-20T02:59:02.745Z,1008.23
2022-10-20T03:00:03.186Z,1008.24
2022-10-20T03:01:02.919Z,1008.21
2022-10-20T03:02:02.778Z,1008.20
2022-10-20T03:03:03.274Z,1008.20
2022-10-20T03:04:02.799Z,1008.21
2022-10-20T03:05:02.767Z,1008.17
2022-10-20T03:06:02.764Z,1008.13
2022-10-20T03:07:02.413Z,1008.08
2022-10-20T03:08:02.284Z,1008.11
2022-10-20T03:09:02.726Z,1008.13
2022-10-20T03:10:02.388Z,1008.13
2022-10-20T03:11:02.446Z,1008.12
2022-10-20T03:12:01.962Z,1008.04
2022-10-20T03:13:02.416Z,1008.03
2022-10-20T03:14:02.132Z,1008.00
2022-10-20T03:15:01.974Z,1008.01
2022-10-20T03:16:02.009Z,1007.94
2022-10-20T03:17:03.078Z,1007.94
2022-10-20T03:18:02.492Z,1007.91
2022-10-20T03:19:05.351Z,1007.92
2022-10-20T03:20:02.450Z,1007.89
2022-10-20T03:21:02.850Z,1007.92
2022-10-20T03:22:02.624Z,1007.86
2022-10-20T03:23:02.973Z,1007.91
2022-10-20T03:24:02.940Z,1007.91
2022-10-20T03:25:02.743Z,1007.86
2022-10-20T03:26:02.785Z,1007.90
2022-10-20T03:27:02.696Z,1007.88
2022-10-20T03:28:02.601Z,1007.89
2022-10-20T03:29:02.206Z,1007.86
2022-10-20T03:30:02.830Z,1007.86
2022-10-20T03:31:02.382Z,1007.89
2022-10-20T03:32:03.142Z,1007.89
2022-10-20T03:33:02.785Z,1007.89
2022-10-20T03:34:02.585Z,1007.87
2022-10-20T03:35:02.600Z,1007.84
2022-10-20T03:36:02.724Z,1007.81
2022-10-20T03:37:02.719Z,1007.76
2022-10-20T03:38:02.108Z,1007.79
2022-10-20T03:39:02.577Z,1007.77
2022-10-20T03:40:02.333Z,1007.74
2022-10-20T03:42:02.789Z,1007.77
2022-10-20T03:43:02.695Z,1007.77
2022-10-20T03:44:02.577Z,1007.79
2022-10-20T03:45:02.490Z,1007.76
2022-10-20T03:46:03.087Z,1007.80
2022-10-20T03:47:02.494Z,1007.78
2022-10-20T03:48:02.591Z,1007.76
2022-10-20T03:49:02.546Z,1007.78
2022-10-20T03:50:02.694Z,1007.76
2022-10-20T03:51:02.422Z,1007.76
2022-10-20T03:52:03.009Z,1007.79
2022-10-20T03:53:03.189Z,1007.69
2022-10-20T03:54:02.750Z,1007.72
2022-10-20T03:55:02.679Z,1007.73
2022-10-20T03:56:02.700Z,1007.72
2022-10-20T03:57:06.794Z,1007.71
2022-10-20T03:58:02.142Z,1007.71
2022-10-20T04:00:02.035Z,1007.70
2022-10-20T04:01:02.159Z,1007.68
2022-10-20T04:02:02.795Z,1007.69
2022-10-20T04:03:02.693Z,1007.66
2022-10-20T04:04:02.626Z,1007.71
2022-10-20T04:05:02.513Z,1007.67
2022-10-20T04:06:02.429Z,1007.67
2022-10-20T04:07:02.902Z,1007.67
2022-10-20T04:08:03.178Z,1007.70
2022-10-20T04:09:02.768Z,1007.71
2022-10-20T04:10:02.931Z,1007.68
2022-10-20T04:11:02.797Z,1007.62
2022-10-20T04:12:02.383Z,1007.62
2022-10-20T04:13:01.913Z,1007.65
2022-10-20T04:14:02.053Z,1007.64
2022-10-20T04:15:01.968Z,1007.67
2022-10-20T04:16:01.834Z,1007.67
2022-10-20T04:17:02.345Z,1007.69
2022-10-20T04:18:01.904Z,1007.69
2022-10-20T04:19:02.531Z,1007.67
2022-10-20T04:20:02.206Z,1007.63
2022-10-20T04:21:01.868Z,1007.56
2022-10-20T04:22:02.210Z,1007.54
2022-10-20T04:23:02.562Z,1007.55
2022-10-20T04:24:02.439Z,1007.58
2022-10-20T04:25:02.597Z,1007.57
2022-10-20T04:26:02.443Z,1007.53
2022-10-20T04:27:03.115Z,1007.47
2022-10-20T04:28:03.056Z,1007.43
2022-10-20T04:29:02.964Z,1007.35
2022-10-20T04:30:02.951Z,1007.32
2022-10-20T04:31:03.340Z,1007.32
2022-10-20T04:32:02.915Z,1007.32
2022-10-20T04:33:02.624Z,1007.28
2022-10-20T04:34:02.568Z,1007.25
2022-10-20T04:35:02.918Z,1007.23
2022-10-20T04:36:02.642Z,1007.23
2022-10-20T04:37:02.932Z,1007.23
2022-10-20T04:38:02.527Z,1007.27
2022-10-20T04:39:02.527Z,1007.22
2022-10-20T04:40:02.945Z,1007.20
2022-10-20T04:41:04.217Z,1007.18
2022-10-20T04:42:02.985Z,1007.16
2022-10-20T04:43:02.914Z,1007.13
2022-10-20T04:44:03.091Z,1007.11
2022-10-20T04:45:03.036Z,1006.97
2022-10-20T04:46:06.908Z,1007.03
2022-10-20T04:47:03.035Z,1007.03
2022-10-20T04:48:02.604Z,1007.07
2022-10-20T04:49:02.457Z,1007.04
2022-10-20T04:50:02.463Z,1007.03
2022-10-20T04:51:02.942Z,1007.06
2022-10-20T04:52:02.469Z,1007.03
2022-10-20T04:53:02.153Z,1007.01
2022-10-20T04:54:02.507Z,1007.04
2022-10-20T04:55:02.194Z,1007.03
2022-10-20T04:56:02.091Z,1007.00
2022-10-20T04:57:02.546Z,1006.97
2022-10-20T04:58:02.488Z,1006.97
2022-10-20T04:59:02.172Z,1006.92
2022-10-20T05:00:02.655Z,1006.91
2022-10-20T05:01:02.238Z,1006.93
2022-10-20T05:02:02.825Z,1006.91
2022-10-20T05:03:02.490Z,1006.91
2022-10-20T05:04:02.414Z,1006.87
2022-10-20T05:05:02.184Z,1006.88
2022-10-20T05:06:02.641Z,1006.87
2022-10-20T05:07:02.421Z,1006.87
2022-10-20T05:08:03.004Z,1006.84
2022-10-20T05:09:02.568Z,1006.82
2022-10-20T05:10:02.546Z,1006.81
2022-10-20T05:11:02.443Z,1006.81
2022-10-20T05:12:02.225Z,1006.77
2022-10-20T05:13:02.043Z,1006.76
2022-10-20T05:14:02.619Z,1006.73
2022-10-20T05:15:02.136Z,1006.65
2022-10-20T05:16:02.365Z,1006.61
2022-10-20T05:17:04.204Z,1006.60
2022-10-20T05:18:02.701Z,1006.59
2022-10-20T05:19:02.178Z,1006.64
2022-10-20T05:20:02.727Z,1006.62
2022-10-20T05:21:08.950Z,1006.66
2022-10-20T05:22:02.934Z,1006.64
2022-10-20T05:23:02.567Z,1006.66
2022-10-20T05:24:02.649Z,1006.60
2022-10-20T05:25:24.554Z,1006.57
2022-10-20T05:26:02.926Z,1006.58
2022-10-20T05:27:02.617Z,1006.51
2022-10-20T05:28:03.070Z,1006.46
2022-10-20T05:29:02.951Z,1006.48
2022-10-20T05:30:03.508Z,1006.45
2022-10-20T05:31:02.665Z,1006.45
2022-10-20T05:32:02.860Z,1006.44
2022-10-20T05:33:02.826Z,1006.48
2022-10-20T05:34:02.385Z,1006.48
2022-10-20T05:35:02.893Z,1006.44
2022-10-20T05:36:02.540Z,1006.43
2022-10-20T05:37:02.604Z,1006.47
2022-10-20T05:38:02.614Z,1006.52
2022-10-20T05:39:02.706Z,1006.47
2022-10-20T05:40:02.830Z,1006.50
2022-10-20T05:41:02.894Z,1006.46
2022-10-20T05:42:03.122Z,1006.44
2022-10-20T05:43:02.927Z,1006.47
2022-10-20T05:44:03.208Z,1006.47
2022-10-20T05:45:03.058Z,1006.49
2022-10-20T05:46:03.343Z,1006.48
2022-10-20T05:47:02.841Z,1006.47
2022-10-20T05:48:02.426Z,1006.44
2022-10-20T05:49:02.776Z,1006.47
2022-10-20T05:50:02.520Z,1006.49
2022-10-20T05:51:02.345Z,1006.48
2022-10-20T05:52:03.080Z,1006.50
2022-10-20T05:53:03.075Z,1006.51
2022-10-20T05:54:02.870Z,1006.49
2022-10-20T05:55:03.496Z,1006.51
2022-10-20T05:56:02.986Z,1006.48
2022-10-20T05:57:02.930Z,1006.45
2022-10-20T05:58:02.834Z,1006.42
2022-10-20T05:59:02.736Z,1006.36
2022-10-20T06:00:02.856Z,1006.35
2022-10-20T06:01:02.356Z,1006.40
2022-10-20T06:02:02.499Z,1006.36
2022-10-20T06:03:02.409Z,1006.35
2022-10-20T06:04:01.840Z,1006.37
2022-10-20T06:05:02.354Z,1006.39
2022-10-20T06:06:02.353Z,1006.36
2022-10-20T06:07:02.589Z,1006.41
2022-10-20T06:08:02.503Z,1006.42
2022-10-20T06:09:02.774Z,1006.39
2022-10-20T06:10:02.711Z,1006.42
2022-10-20T06:11:02.546Z,1006.39
2022-10-20T06:12:02.263Z,1006.42
2022-10-20T06:13:02.032Z,1006.46
2022-10-20T06:14:02.118Z,1006.49
2022-10-20T06:15:02.588Z,1006.50
2022-10-20T06:16:02.316Z,1006.51
2022-10-20T06:17:02.779Z,1006.47
2022-10-20T06:18:02.928Z,1006.52
2022-10-20T06:19:02.476Z,1006.55
2022-10-20T06:20:02.623Z,1006.58
2022-10-20T06:21:02.567Z,1006.60
2022-10-20T06:22:05.541Z,1006.60
2022-10-20T06:23:01.968Z,1006.64
2022-10-20T06:24:02.402Z,1006.59
2022-10-20T06:25:02.411Z,1006.69
2022-10-20T06:26:02.291Z,1006.72
2022-10-20T06:27:02.178Z,1006.73
2022-10-20T06:28:01.961Z,1006.73
2022-10-20T06:29:04.605Z,1006.78
2022-10-20T06:30:02.332Z,1006.83
2022-10-20T06:31:02.343Z,1006.87
2022-10-20T06:32:02.054Z,1006.90
2022-10-20T06:33:02.037Z,1006.87
2022-10-20T06:34:02.224Z,1006.92
2022-10-20T06:35:02.402Z,1006.98
2022-10-20T06:36:02.356Z,1006.97
2022-10-20T06:37:02.104Z,1006.95
2022-10-20T06:38:02.676Z,1006.93
2022-10-20T06:39:02.365Z,1006.89
2022-10-20T06:40:02.293Z,1006.89
2022-10-20T06:41:02.636Z,1006.85
2022-10-20T06:42:02.590Z,1006.84
2022-10-20T06:43:02.801Z,1006.77
2022-10-20T06:44:02.538Z,1006.80
2022-10-20T06:45:02.258Z,1006.73
2022-10-20T06:46:02.723Z,1006.68
2022-10-20T06:47:02.563Z,1006.69
2022-10-20T06:48:02.638Z,1006.65
2022-10-20T06:49:02.656Z,1006.65
2022-10-20T06:50:02.630Z,1006.61
2022-10-20T06:51:02.533Z,1006.63
2022-10-20T06:52:01.660Z,1006.68
2022-10-20T06:53:01.665Z,1006.68
2022-10-20T06:54:01.764Z,1006.65
2022-10-20T06:55:01.788Z,1006.65
2022-10-20T06:56:01.721Z,1006.68
2022-10-20T06:57:02.453Z,1006.73
2022-10-20T06:58:02.091Z,1006.70
2022-10-20T06:59:02.143Z,1006.69
2022-10-20T07:00:02.373Z,1006.61
2022-10-20T07:01:04.470Z,1006.67
2022-10-20T07:02:03.169Z,1006.64
2022-10-20T07:03:03.090Z,1006.65
2022-10-20T07:04:02.902Z,1006.60
2022-10-20T07:05:03.549Z,1006.65
2022-10-20T07:06:03.199Z,1006.73
2022-10-20T07:07:02.761Z,1006.68
2022-10-20T07:08:02.741Z,1006.74
2022-10-20T07:09:03.025Z,1006.72
2022-10-20T07:10:02.842Z,1006.73
2022-10-20T07:11:02.466Z,1006.78
2022-10-20T07:12:02.743Z,1006.77
2022-10-20T07:13:03.004Z,1006.82
2022-10-20T07:14:03.490Z,1006.89
2022-10-20T07:15:02.869Z,1006.88
2022-10-20T07:16:03.234Z,1006.88
2022-10-20T07:17:02.685Z,1006.93
2022-10-20T07:18:02.749Z,1006.98
2022-10-20T07:19:02.214Z,1007.02
2022-10-20T07:20:02.720Z,1007.00
2022-10-20T07:21:02.604Z,1007.05
2022-10-20T07:22:02.978Z,1007.04
2022-10-20T07:23:03.035Z,1007.04
2022-10-20T07:24:02.499Z,1007.04
2022-10-20T07:25:03.113Z,1007.04
2022-10-20T07:26:02.726Z,1007.01
2022-10-20T07:27:03.488Z,1006.99
2022-10-20T07:28:03.546Z,1006.98
2022-10-20T07:29:03.528Z,1006.96
2022-10-20T07:30:02.971Z,1006.88
2022-10-20T07:31:03.546Z,1006.86
2022-10-20T07:32:02.991Z,1006.80
2022-10-20T07:33:03.091Z,1006.75
2022-10-20T07:34:26.117Z,1006.81
2022-10-20T07:35:02.951Z,1006.74
2022-10-20T07:36:02.832Z,1006.75
2022-10-20T07:37:03.570Z,1006.70
2022-10-20T07:38:03.504Z,1006.69
2022-10-20T07:39:03.486Z,1006.69
2022-10-20T07:40:03.089Z,1006.65
2022-10-20T07:41:03.641Z,1006.60
2022-10-20T07:42:03.035Z,1006.51
2022-10-20T07:43:03.071Z,1006.45
2022-10-20T07:44:03.107Z,1006.42
2022-10-20T07:45:03.197Z,1006.46
2022-10-20T07:46:03.068Z,1006.40
2022-10-20T07:47:03.633Z,1006.45
2022-10-20T07:48:03.575Z,1006.48
2022-10-20T07:50:03.193Z,1006.52
2022-10-20T07:51:03.538Z,1006.57
2022-10-20T07:52:03.158Z,1006.59
2022-10-20T07:53:02.871Z,1006.55
2022-10-20T07:54:02.536Z,1006.58
2022-10-20T07:55:12.462Z,1006.62
2022-10-20T07:56:02.658Z,1006.61
2022-10-20T07:57:03.500Z,1006.59
2022-10-20T07:58:03.203Z,1006.68
2022-10-20T07:59:03.168Z,1006.76
2022-10-20T08:00:02.766Z,1006.77
2022-10-20T08:01:03.155Z,1006.68
2022-10-20T08:02:02.876Z,1006.69
2022-10-20T08:03:02.753Z,1006.66
2022-10-20T08:04:02.342Z,1006.68
2022-10-20T08:05:02.863Z,1006.63
2022-10-20T08:06:02.402Z,1006.62
2022-10-20T08:07:02.379Z,1006.49
2022-10-20T08:08:02.913Z,1006.48
2022-10-20T08:09:02.972Z,1006.47
2022-10-20T08:10:02.874Z,1006.50
2022-10-20T08:11:02.951Z,1006.52
2022-10-20T08:12:02.983Z,1006.52
2022-10-20T08:13:02.833Z,1006.56
2022-10-20T08:14:03.077Z,1006.43
2022-10-20T08:15:03.412Z,1006.49
2022-10-20T08:16:02.733Z,1006.52
2022-10-20T08:17:02.434Z,1006.51
2022-10-20T08:18:02.411Z,1006.54
2022-10-20T08:19:03.090Z,1006.52
2022-10-20T08:21:02.533Z,1006.45
2022-10-20T08:22:02.066Z,1006.39
2022-10-20T08:23:02.101Z,1006.36
2022-10-20T08:24:02.342Z,1006.36
2022-10-20T08:25:02.566Z,1006.36
2022-10-20T08:26:02.087Z,1006.34
2022-10-20T08:27:02.667Z,1006.36
2022-10-20T08:28:02.757Z,1006.38
2022-10-20T08:29:02.645Z,1006.29
2022-10-20T08:30:22.370Z,1006.28
2022-10-20T08:31:02.687Z,1006.28
2022-10-20T08:32:01.982Z,1006.30
2022-10-20T08:33:02.118Z,1006.30
2022-10-20T08:34:02.020Z,1006.33
2022-10-20T08:35:02.030Z,1006.35
2022-10-20T08:36:02.113Z,1006.41
2022-10-20T08:37:02.249Z,1006.39
2022-10-20T08:38:02.473Z,1006.43
2022-10-20T08:39:05.231Z,1006.49
2022-10-20T08:40:02.476Z,1006.49
2022-10-20T08:41:02.312Z,1006.58
2022-10-20T08:42:08.591Z,1006.60
2022-10-20T08:43:02.318Z,1006.49
2022-10-20T08:44:02.261Z,1006.46
2022-10-20T08:45:02.083Z,1006.51
2022-10-20T08:46:02.716Z,1006.55
2022-10-20T08:47:02.625Z,1006.46
2022-10-20T08:48:02.951Z,1006.47
2022-10-20T08:49:02.396Z,1006.33
2022-10-20T08:50:02.940Z,1006.32
2022-10-20T08:51:02.742Z,1006.39
2022-10-20T08:52:02.730Z,1006.35
2022-10-20T08:53:03.072Z,1006.24
2022-10-20T08:54:02.838Z,1006.31
2022-10-20T08:55:02.904Z,1006.28
2022-10-20T08:56:02.963Z,1006.37
2022-10-20T08:57:02.754Z,1006.34
2022-10-20T08:58:03.156Z,1006.32
2022-10-20T08:59:03.485Z,1006.32
2022-10-20T09:00:06.817Z,1006.31
2022-10-20T09:01:02.880Z,1006.33
2022-10-20T09:02:03.157Z,1006.29
2022-10-20T09:03:03.087Z,1006.28
2022-10-20T09:04:03.489Z,1006.26
2022-10-20T09:05:03.468Z,1006.23
2022-10-20T09:06:02.947Z,1006.23
2022-10-20T09:07:03.261Z,1006.20
2022-10-20T09:08:03.658Z,1006.18
2022-10-20T09:09:03.167Z,1006.20
2022-10-20T09:10:03.573Z,1006.23
2022-10-20T09:11:03.561Z,1006.18
2022-10-20T09:12:03.213Z,1006.21
2022-10-20T09:13:03.501Z,1006.27
2022-10-20T09:14:03.564Z,1006.27
2022-10-20T09:15:03.526Z,1006.32
2022-10-20T09:16:03.511Z,1006.24
2022-10-20T09:17:02.914Z,1006.31
2022-10-20T09:18:02.798Z,1006.32
2022-10-20T09:19:02.950Z,1006.29
2022-10-20T09:20:03.120Z,1006.27
2022-10-20T09:21:03.307Z,1006.28
2022-10-20T09:22:03.107Z,1006.31
2022-10-20T09:23:07.989Z,1006.32
2022-10-20T09:24:03.154Z,1006.28
2022-10-20T09:25:03.183Z,1006.36
2022-10-20T09:26:03.105Z,1006.38
2022-10-20T09:27:02.849Z,1006.32
2022-10-20T09:28:02.931Z,1006.34
2022-10-20T09:29:12.840Z,1006.34
2022-10-20T09:30:02.951Z,1006.30
2022-10-20T09:31:03.013Z,1006.27
2022-10-20T09:32:16.805Z,1006.26
2022-10-20T09:33:03.663Z,1006.24
2022-10-20T09:34:03.166Z,1006.18
2022-10-20T09:35:03.154Z,1006.16
2022-10-20T09:36:03.528Z,1006.16
2022-10-20T09:37:02.836Z,1006.11
2022-10-20T09:38:02.794Z,1006.15
2022-10-20T09:39:02.688Z,1006.18
2022-10-20T09:40:02.791Z,1006.13
2022-10-20T09:41:02.563Z,1006.10
2022-10-20T09:43:03.299Z,1006.18
2022-10-20T09:44:03.487Z,1006.20
2022-10-20T09:45:03.494Z,1006.15
2022-10-20T09:46:03.473Z,1006.20
2022-10-20T09:47:03.238Z,1006.28
2022-10-20T09:48:03.510Z,1006.20
2022-10-20T09:49:03.488Z,1006.24
2022-10-20T09:50:03.130Z,1006.28
2022-10-20T09:51:03.176Z,1006.29
2022-10-20T09:52:03.510Z,1006.28
2022-10-20T09:53:03.614Z,1006.26
2022-10-20T09:54:03.728Z,1006.31
2022-10-20T09:55:03.623Z,1006.30
2022-10-20T09:56:03.539Z,1006.32
2022-10-20T09:57:03.276Z,1006.33
2022-10-20T09:58:03.477Z,1006.33
2022-10-20T09:59:03.190Z,1006.36
2022-10-20T10:00:18.870Z,1006.34
2022-10-20T10:01:03.461Z,1006.35
2022-10-20T10:02:02.903Z,1006.25
2022-10-20T10:03:02.969Z,1006.13
2022-10-20T10:04:03.714Z,1006.20
2022-10-20T10:05:02.958Z,1006.24
2022-10-20T10:06:02.782Z,1006.26
2022-10-20T10:07:02.588Z,1006.27
2022-10-20T10:08:02.636Z,1006.28
2022-10-20T10:09:02.553Z,1006.29
2022-10-20T10:10:05.608Z,1006.31
2022-10-20T10:11:02.319Z,1006.26
2022-10-20T10:12:02.775Z,1006.36
2022-10-20T10:13:02.644Z,1006.35
2022-10-20T10:14:02.583Z,1006.35
2022-10-20T10:15:02.433Z,1006.30
2022-10-20T10:16:02.831Z,1006.37
2022-10-20T10:17:03.413Z,1006.42
2022-10-20T10:18:03.237Z,1006.40
2022-10-20T10:19:03.395Z,1006.40
2022-10-20T10:20:02.983Z,1006.41
2022-10-20T10:21:03.032Z,1006.39
2022-10-20T10:22:03.118Z,1006.37
2022-10-20T10:23:02.858Z,1006.34
2022-10-20T10:24:03.032Z,1006.27
2022-10-20T10:25:02.916Z,1006.32
2022-10-20T10:26:03.344Z,1006.27
2022-10-20T10:27:03.247Z,1006.26
2022-10-20T10:28:02.941Z,1006.28
2022-10-20T10:29:02.993Z,1006.31
2022-10-20T10:30:02.917Z,1006.26
2022-10-20T10:31:02.964Z,1006.20
2022-10-20T10:32:03.666Z,1006.27
2022-10-20T10:33:03.199Z,1006.26
2022-10-20T10:34:03.435Z,1006.24
2022-10-20T10:35:03.359Z,1006.19
2022-10-20T10:36:03.156Z,1006.23
2022-10-20T10:37:02.599Z,1006.18
2022-10-20T10:38:03.093Z,1006.06
2022-10-20T10:39:03.117Z,1006.06
2022-10-20T10:40:02.776Z,1006.00
2022-10-20T10:41:02.651Z,1006.04
2022-10-20T10:42:02.679Z,1006.05
2022-10-20T10:43:02.926Z,1006.04
2022-10-20T10:44:03.006Z,1006.03
2022-10-20T10:45:03.036Z,1005.97
2022-10-20T10:46:03.286Z,1005.91
2022-10-20T10:47:03.492Z,1005.93
2022-10-20T10:48:02.896Z,1005.91
2022-10-20T10:49:02.915Z,1005.96
2022-10-20T10:50:02.716Z,1005.96
2022-10-20T10:51:02.599Z,1005.97
2022-10-20T10:52:02.916Z,1005.95
2022-10-20T10:53:02.552Z,1005.97
2022-10-20T10:54:02.608Z,1005.91
2022-10-20T10:55:02.116Z,1005.87
2022-10-20T10:56:02.198Z,1005.86
2022-10-20T10:57:02.290Z,1005.86
2022-10-20T10:58:02.989Z,1005.86
2022-10-20T10:59:03.110Z,1005.83
2022-10-20T11:00:03.515Z,1005.86
2022-10-20T11:01:03.340Z,1005.87
2022-10-20T11:02:02.919Z,1005.83
2022-10-20T11:03:02.579Z,1005.81
2022-10-20T11:04:02.684Z,1005.77
2022-10-20T11:05:02.581Z,1005.75
2022-10-20T11:06:02.417Z,1005.78
2022-10-20T11:07:02.725Z,1005.82
2022-10-20T11:08:02.580Z,1005.86
2022-10-20T11:09:02.431Z,1005.85
2022-10-20T11:10:02.628Z,1005.81
2022-10-20T11:11:03.020Z,1005.81
2022-10-20T11:12:02.831Z,1005.80
2022-10-20T11:13:02.861Z,1005.78
2022-10-20T11:14:02.519Z,1005.83
2022-10-20T11:15:02.484Z,1006.01
2022-10-20T11:16:02.507Z,1006.28
2022-10-20T11:17:02.990Z,1006.50
2022-10-20T11:18:02.831Z,1006.47
2022-10-20T11:19:03.197Z,1006.33
2022-10-20T11:20:03.283Z,1006.39
2022-10-20T11:21:03.013Z,1006.49
2022-10-20T11:22:02.996Z,1006.41
2022-10-20T11:23:02.595Z,1006.36
2022-10-20T11:24:02.694Z,1006.50
2022-10-20T11:25:02.783Z,1006.48
2022-10-20T11:26:02.969Z,1006.45
2022-10-20T11:27:02.504Z,1006.46
2022-10-20T11:28:02.807Z,1006.44
2022-10-20T11:29:03.198Z,1006.46
2022-10-20T11:30:02.772Z,1006.37
2022-10-20T11:31:03.093Z,1006.35
2022-10-20T11:32:03.197Z,1006.30
2022-10-20T11:33:02.952Z,1006.24
2022-10-20T11:34:03.020Z,1006.28
2022-10-20T11:35:02.485Z,1006.28
2022-10-20T11:36:03.046Z,1006.25
2022-10-20T11:37:03.108Z,1006.28
2022-10-20T11:38:03.719Z,1006.28
2022-10-20T11:39:03.508Z,1006.24
2022-10-20T11:40:07.552Z,1006.24
2022-10-20T11:41:03.510Z,1006.20
2022-10-20T11:42:03.511Z,1006.15
2022-10-20T11:43:03.245Z,1006.08
2022-10-20T11:44:02.700Z,1006.08
2022-10-20T11:45:03.385Z,1006.03
2022-10-20T11:46:03.059Z,1006.04
2022-10-20T11:47:02.733Z,1006.06
2022-10-20T11:48:03.555Z,1006.04
2022-10-20T11:49:04.119Z,1006.08
2022-10-20T11:50:03.275Z,1006.06
2022-10-20T11:51:03.007Z,1006.06
2022-10-20T11:52:03.027Z,1006.02
2022-10-20T11:53:03.622Z,1005.97
2022-10-20T11:54:03.576Z,1005.94
2022-10-20T11:55:03.809Z,1005.91
2022-10-20T11:56:03.592Z,1005.87
2022-10-20T11:57:03.679Z,1005.88
2022-10-20T11:58:03.509Z,1005.90
2022-10-20T11:59:03.472Z,1005.89
2022-10-20T12:00:03.197Z,1005.91
2022-10-20T12:01:03.516Z,1005.89
2022-10-20T12:02:03.521Z,1005.88
2022-10-20T12:03:02.752Z,1005.82
2022-10-20T12:04:03.082Z,1005.80
2022-10-20T12:05:02.566Z,1005.78
2022-10-20T12:06:07.544Z,1005.80
2022-10-20T12:07:02.526Z,1005.78
2022-10-20T12:08:24.543Z,1005.72
2022-10-20T12:09:03.210Z,1005.69
2022-10-20T12:10:02.943Z,1005.67
2022-10-20T12:11:03.216Z,1005.71